createdAt,value
2019-02-08T00:00:13.978Z,975.00
2019-02-08T00:02:18.643Z,975.00
2019-02-08T00:03:18.885Z,974.97
2019-02-08T00:05:23.519Z,975.07
2019-02-08T00:06:23.755Z,975.08
2019-02-08T00:08:28.417Z,975.07
2019-02-08T00:09:28.647Z,975.11
2019-02-08T00:11:33.325Z,975.12
2019-02-08T00:12:33.557Z,975.11
2019-02-08T00:14:38.213Z,975.07
2019-02-08T00:15:38.446Z,975.15
2019-02-08T00:17:43.115Z,975.10
2019-02-08T00:18:43.349Z,975.04
2019-02-08T00:20:47.495Z,975.11
2019-02-08T00:21:47.732Z,975.09
2019-02-08T00:23:52.411Z,975.09
2019-02-08T00:24:52.641Z,975.17
2019-02-08T00:26:46.225Z,975.11
2019-02-08T00:27:46.468Z,975.09
2019-02-08T00:29:51.102Z,975.08
2019-02-08T00:30:51.335Z,975.08
2019-02-08T00:32:56.005Z,975.09
2019-02-08T00:33:56.240Z,975.06
2019-02-08T00:36:00.385Z,975.09
2019-02-08T00:37:00.619Z,975.06
2019-02-08T00:39:04.796Z,975.01
2019-02-08T00:40:05.030Z,975.02
2019-02-08T00:42:09.694Z,975.03
2019-02-08T00:43:09.927Z,975.01
2019-02-08T00:45:14.569Z,975.05
2019-02-08T00:46:14.805Z,975.05
2019-02-08T00:48:18.981Z,975.02
2019-02-08T00:49:19.216Z,975.07
2019-02-08T00:51:23.859Z,975.09
2019-02-08T00:52:24.094Z,975.06
2019-02-08T00:54:28.271Z,975.15
2019-02-08T00:55:28.503Z,975.05
2019-02-08T00:57:21.600Z,975.06
2019-02-08T00:58:21.830Z,975.09
2019-02-08T01:00:26.474Z,975.17
2019-02-08T01:01:26.708Z,975.16
2019-02-08T01:03:30.880Z,975.16
2019-02-08T01:04:31.121Z,975.10
2019-02-08T01:06:35.765Z,975.22
2019-02-08T01:07:36.001Z,975.13
2019-02-08T01:09:40.660Z,975.09
2019-02-08T01:10:40.894Z,975.10
2019-02-08T01:12:45.558Z,975.05
2019-02-08T01:13:45.791Z,975.00
2019-02-08T01:15:49.939Z,975.05
2019-02-08T01:16:50.173Z,975.07
2019-02-08T01:18:54.341Z,975.13
2019-02-08T01:19:54.580Z,975.14
2019-02-08T01:21:58.727Z,975.25
2019-02-08T01:22:58.964Z,975.20
2019-02-08T01:25:03.132Z,975.28
2019-02-08T01:26:03.372Z,975.28
2019-02-08T01:28:07.538Z,975.29
2019-02-08T01:29:07.769Z,975.33
2019-02-08T01:31:11.920Z,975.26
2019-02-08T01:32:12.149Z,975.31
2019-02-08T01:34:16.320Z,975.32
2019-02-08T01:35:16.555Z,975.34
2019-02-08T01:37:10.125Z,975.32
2019-02-08T01:38:10.359Z,975.29
2019-02-08T01:40:14.535Z,975.33
2019-02-08T01:41:14.761Z,975.32
2019-02-08T01:43:18.935Z,975.34
2019-02-08T01:44:19.168Z,975.31
2019-02-08T01:46:23.330Z,975.35
2019-02-08T01:47:23.562Z,975.34
2019-02-08T01:49:28.221Z,975.33
2019-02-08T01:50:28.459Z,975.39
2019-02-08T01:52:33.099Z,975.42
2019-02-08T01:53:33.334Z,975.39
2019-02-08T01:55:37.510Z,975.38
2019-02-08T01:56:37.745Z,975.41
2019-02-08T01:58:41.919Z,975.35
2019-02-08T01:59:42.150Z,975.33
2019-02-08T02:01:46.303Z,975.30
2019-02-08T02:02:46.539Z,975.40
2019-02-08T02:04:51.205Z,975.40
2019-02-08T02:05:51.441Z,975.40
2019-02-08T02:07:56.083Z,975.46
2019-02-08T02:08:56.319Z,975.51
2019-02-08T02:11:00.488Z,975.46
2019-02-08T02:12:00.721Z,975.50
2019-02-08T02:14:04.901Z,975.49
2019-02-08T02:15:05.139Z,975.47
2019-02-08T02:16:58.217Z,975.51
2019-02-08T02:17:58.451Z,975.47
2019-02-08T02:20:02.626Z,975.53
2019-02-08T02:21:02.858Z,975.49
2019-02-08T02:23:07.504Z,975.49
2019-02-08T02:24:07.738Z,975.45
2019-02-08T02:26:12.920Z,975.49
2019-02-08T02:27:13.152Z,975.47
2019-02-08T02:29:17.320Z,975.47
2019-02-08T02:30:17.571Z,975.47
2019-02-08T02:32:21.698Z,975.49
2019-02-08T02:33:21.949Z,975.49
2019-02-08T02:35:26.110Z,975.45
2019-02-08T02:36:26.335Z,975.44
2019-02-08T02:38:30.517Z,975.47
2019-02-08T02:39:30.720Z,975.43
2019-02-08T02:41:34.900Z,975.48
2019-02-08T02:42:35.133Z,975.43
2019-02-08T02:44:39.301Z,975.54
2019-02-08T02:45:39.534Z,975.53
2019-02-08T02:47:44.175Z,975.60
2019-02-08T02:48:44.409Z,975.61
2019-02-08T02:50:48.577Z,975.59
2019-02-08T02:51:48.812Z,975.61
2019-02-08T02:53:53.457Z,975.59
2019-02-08T02:54:53.689Z,975.58
2019-02-08T02:56:47.280Z,975.59
2019-02-08T02:57:47.516Z,975.51
2019-02-08T02:59:51.687Z,975.64
2019-02-08T03:00:51.918Z,975.64
2019-02-08T03:02:56.066Z,975.57
2019-02-08T03:03:56.297Z,975.57
2019-02-08T03:06:00.471Z,975.57
2019-02-08T03:07:00.711Z,975.64
2019-02-08T03:09:04.854Z,975.61
2019-02-08T03:10:05.087Z,975.64
2019-02-08T03:12:09.750Z,975.65
2019-02-08T03:13:09.987Z,975.70
2019-02-08T03:15:14.129Z,975.67
2019-02-08T03:16:14.364Z,975.61
2019-02-08T03:18:18.546Z,975.62
2019-02-08T03:19:18.770Z,975.59
2019-02-08T03:21:22.934Z,975.82
2019-02-08T03:22:23.169Z,975.59
2019-02-08T03:24:27.323Z,975.56
2019-02-08T03:25:27.561Z,975.58
2019-02-08T03:27:20.662Z,975.47
2019-02-08T03:28:20.892Z,975.47
2019-02-08T03:30:25.065Z,975.45
2019-02-08T03:31:25.273Z,975.42
2019-02-08T03:33:29.437Z,975.49
2019-02-08T03:34:29.673Z,975.43
2019-02-08T03:36:33.843Z,975.39
2019-02-08T03:37:34.077Z,975.40
2019-02-08T03:39:38.725Z,975.38
2019-02-08T03:40:38.955Z,975.39
2019-02-08T03:42:43.618Z,975.51
2019-02-08T03:43:43.854Z,975.37
2019-02-08T03:45:48.499Z,975.44
2019-02-08T03:46:48.737Z,975.55
2019-02-08T03:48:52.900Z,975.54
2019-02-08T03:49:53.136Z,975.53
2019-02-08T03:51:57.313Z,975.49
2019-02-08T03:52:57.548Z,975.59
2019-02-08T03:55:01.692Z,975.51
2019-02-08T03:56:01.923Z,975.49
2019-02-08T03:58:06.090Z,975.59
2019-02-08T03:59:06.323Z,975.52
2019-02-08T04:01:10.467Z,975.61
2019-02-08T04:02:10.702Z,975.52
2019-02-08T04:04:15.367Z,975.64
2019-02-08T04:05:15.600Z,975.52
2019-02-08T04:07:08.684Z,975.57
2019-02-08T04:08:08.920Z,975.60
2019-02-08T04:10:13.089Z,975.49
2019-02-08T04:11:13.324Z,975.60
2019-02-08T04:13:17.503Z,975.53
2019-02-08T04:14:17.733Z,975.65
2019-02-08T04:16:21.887Z,975.51
2019-02-08T04:17:22.122Z,975.57
2019-02-08T04:19:26.290Z,975.57
2019-02-08T04:20:26.530Z,975.57
2019-02-08T04:22:30.694Z,975.61
2019-02-08T04:23:30.929Z,975.55
2019-02-08T04:25:35.095Z,975.47
2019-02-08T04:26:35.338Z,975.53
2019-02-08T04:28:39.503Z,975.44
2019-02-08T04:29:39.737Z,975.52
2019-02-08T04:31:44.392Z,975.43
2019-02-08T04:32:44.628Z,975.49
2019-02-08T04:34:49.284Z,975.45
2019-02-08T04:35:49.513Z,975.32
2019-02-08T04:37:54.153Z,975.42
2019-02-08T04:38:54.395Z,975.52
2019-02-08T04:40:58.568Z,975.46
2019-02-08T04:41:58.803Z,975.41
2019-02-08T04:44:02.969Z,975.46
2019-02-08T04:45:03.203Z,975.49
2019-02-08T04:46:56.283Z,975.54
2019-02-08T04:47:56.522Z,975.48
2019-02-08T04:50:01.187Z,975.49
2019-02-08T04:51:01.421Z,975.47
2019-02-08T04:53:06.065Z,975.52
2019-02-08T04:54:06.300Z,975.49
2019-02-08T04:56:10.467Z,975.47
2019-02-08T04:57:10.703Z,975.51
2019-02-08T04:59:14.869Z,975.51
2019-02-08T05:00:15.101Z,975.52
2019-02-08T05:02:19.249Z,975.41
2019-02-08T05:03:19.485Z,975.47
2019-02-08T05:05:23.668Z,975.48
2019-02-08T05:06:23.884Z,975.51
2019-02-08T05:08:28.042Z,975.44
2019-02-08T05:09:28.280Z,975.52
2019-02-08T05:11:32.446Z,975.52
2019-02-08T05:12:32.680Z,975.55
2019-02-08T05:14:37.343Z,975.61
2019-02-08T05:15:37.580Z,975.56
2019-02-08T05:17:31.139Z,975.46
2019-02-08T05:18:31.373Z,975.45
2019-02-08T05:20:35.544Z,975.44
2019-02-08T05:21:35.778Z,975.41
2019-02-08T05:23:39.933Z,975.36
2019-02-08T05:24:45.875Z,975.39
2019-02-08T05:26:33.761Z,975.35
2019-02-08T05:27:33.994Z,975.42
2019-02-08T05:29:38.170Z,975.38
2019-02-08T05:30:38.411Z,975.24
2019-02-08T05:32:43.045Z,975.45
2019-02-08T05:33:43.280Z,975.39
2019-02-08T05:35:47.939Z,975.46
2019-02-08T05:36:48.168Z,975.43
2019-02-08T05:38:52.819Z,975.43
2019-02-08T05:39:53.043Z,975.46
2019-02-08T05:41:57.215Z,975.48
2019-02-08T05:42:57.450Z,975.31
2019-02-08T05:45:01.644Z,975.38
2019-02-08T05:46:01.870Z,975.34
2019-02-08T05:48:06.026Z,975.45
2019-02-08T05:49:06.258Z,975.48
2019-02-08T05:51:10.921Z,975.49
2019-02-08T05:52:11.155Z,975.37
2019-02-08T05:54:15.798Z,975.33
2019-02-08T05:55:16.037Z,975.33
2019-02-08T05:57:09.621Z,975.41
2019-02-08T05:58:09.857Z,975.41
2019-02-08T06:00:14.495Z,975.48
2019-02-08T06:01:14.732Z,975.43
2019-02-08T06:03:19.403Z,975.44
2019-02-08T06:04:19.637Z,975.41
2019-02-08T06:06:32.946Z,975.47
2019-02-08T06:07:24.691Z,975.49
2019-02-08T06:09:29.336Z,975.45
2019-02-08T06:10:29.567Z,975.41
2019-02-08T06:12:34.236Z,975.47
2019-02-08T06:13:34.479Z,975.40
2019-02-08T06:15:39.169Z,975.50
2019-02-08T06:16:39.373Z,975.44
2019-02-08T06:18:44.016Z,975.39
2019-02-08T06:19:44.266Z,975.52
2019-02-08T06:21:48.937Z,975.42
2019-02-08T06:22:49.164Z,975.43
2019-02-08T06:24:53.822Z,975.58
2019-02-08T06:25:54.047Z,975.49
2019-02-08T06:27:58.715Z,975.51
2019-02-08T06:28:58.947Z,975.43
2019-02-08T06:31:03.619Z,975.50
2019-02-08T06:32:03.852Z,975.51
2019-02-08T06:34:08.503Z,975.47
2019-02-08T06:35:08.811Z,975.58
2019-02-08T06:37:02.363Z,975.50
2019-02-08T06:38:02.582Z,975.52
2019-02-08T06:40:07.239Z,975.58
2019-02-08T06:41:07.462Z,975.52
2019-02-08T06:43:12.164Z,975.62
2019-02-08T06:44:12.403Z,975.50
2019-02-08T06:46:17.035Z,975.56
2019-02-08T06:47:17.253Z,975.56
2019-02-08T06:49:21.929Z,975.61
2019-02-08T06:50:22.128Z,975.56
2019-02-08T06:52:26.858Z,975.53
2019-02-08T06:53:27.056Z,975.52
2019-02-08T06:55:31.192Z,975.58
2019-02-08T06:56:31.423Z,975.64
2019-02-08T06:58:35.577Z,975.55
2019-02-08T06:59:35.810Z,975.54
2019-02-08T07:01:40.654Z,975.59
2019-02-08T07:02:40.722Z,975.70
2019-02-08T07:04:45.521Z,975.60
2019-02-08T07:05:45.622Z,975.59
2019-02-08T07:07:50.262Z,975.69
2019-02-08T07:08:50.547Z,975.73
2019-02-08T07:10:55.253Z,975.44
2019-02-08T07:11:55.441Z,975.58
2019-02-08T07:14:00.119Z,975.54
2019-02-08T07:15:00.279Z,975.66
2019-02-08T07:16:53.340Z,975.56
2019-02-08T07:17:53.576Z,975.57
2019-02-08T07:19:57.742Z,975.66
2019-02-08T07:20:57.979Z,975.49
2019-02-08T07:23:02.145Z,975.61
2019-02-08T07:24:02.380Z,975.65
2019-02-08T07:26:06.534Z,975.75
2019-02-08T07:27:06.763Z,975.74
2019-02-08T07:29:11.418Z,975.67
2019-02-08T07:30:11.661Z,975.78
2019-02-08T07:32:15.806Z,975.67
2019-02-08T07:33:16.043Z,975.65
2019-02-08T07:35:20.226Z,975.66
2019-02-08T07:36:20.451Z,975.75
2019-02-08T07:38:24.627Z,975.71
2019-02-08T07:39:24.861Z,975.64
2019-02-08T07:41:29.525Z,975.71
2019-02-08T07:42:29.753Z,975.72
2019-02-08T07:44:33.917Z,975.78
2019-02-08T07:45:34.151Z,975.75
2019-02-08T07:47:27.226Z,975.77
2019-02-08T07:48:27.459Z,975.75
2019-02-08T07:50:31.628Z,975.82
2019-02-08T07:51:31.863Z,975.61
2019-02-08T07:53:36.036Z,975.79
2019-02-08T07:54:36.274Z,975.94
2019-02-08T07:56:40.420Z,975.88
2019-02-08T07:57:40.655Z,975.86
2019-02-08T07:59:44.831Z,975.85
2019-02-08T08:00:45.066Z,975.88
2019-02-08T08:02:49.212Z,975.87
2019-02-08T08:03:49.550Z,975.87
2019-02-08T08:05:55.104Z,975.96
2019-02-08T08:06:55.349Z,975.88
2019-02-08T08:08:59.508Z,975.86
2019-02-08T08:09:59.757Z,975.90
2019-02-08T08:12:03.884Z,975.84
2019-02-08T08:13:04.120Z,975.91
2019-02-08T08:15:08.290Z,975.89
2019-02-08T08:16:08.523Z,975.83
2019-02-08T08:18:12.682Z,975.75
2019-02-08T08:19:12.917Z,975.77
2019-02-08T08:21:17.090Z,975.89
2019-02-08T08:22:17.324Z,975.91
2019-02-08T08:24:21.500Z,975.82
2019-02-08T08:25:21.737Z,975.95
2019-02-08T08:27:14.816Z,976.02
2019-02-08T08:28:15.047Z,975.89
2019-02-08T08:30:19.215Z,975.88
2019-02-08T08:31:19.449Z,975.77
2019-02-08T08:33:23.607Z,976.00
2019-02-08T08:34:23.843Z,975.99
2019-02-08T08:36:28.502Z,975.88
2019-02-08T08:37:28.737Z,976.16
2019-02-08T08:39:32.911Z,976.01
2019-02-08T08:40:33.153Z,975.98
2019-02-08T08:42:37.294Z,975.94
2019-02-08T08:43:37.531Z,976.04
2019-02-08T08:45:41.696Z,976.01
2019-02-08T08:46:41.927Z,975.93
2019-02-08T08:48:46.077Z,975.97
2019-02-08T08:49:46.311Z,975.90
2019-02-08T08:51:50.483Z,975.97
2019-02-08T08:52:50.717Z,976.05
2019-02-08T08:54:54.895Z,975.98
2019-02-08T08:55:55.127Z,976.06
2019-02-08T08:57:59.279Z,975.95
2019-02-08T08:58:59.513Z,976.08
2019-02-08T09:01:03.683Z,975.96
2019-02-08T09:02:03.918Z,975.93
2019-02-08T09:04:08.064Z,975.97
2019-02-08T09:05:08.302Z,976.01
2019-02-08T09:07:01.397Z,975.88
2019-02-08T09:08:01.635Z,976.08
2019-02-08T09:10:06.303Z,975.81
2019-02-08T09:11:06.539Z,975.90
2019-02-08T09:13:14.810Z,975.85
2019-02-08T09:14:11.424Z,975.76
2019-02-08T09:16:15.606Z,975.69
2019-02-08T09:17:15.844Z,975.80
2019-02-08T09:19:20.000Z,975.89
2019-02-08T09:20:20.233Z,975.76
2019-02-08T09:22:24.396Z,975.85
2019-02-08T09:23:24.629Z,975.75
2019-02-08T09:25:28.806Z,975.72
2019-02-08T09:26:29.040Z,975.73
2019-02-08T09:28:33.195Z,975.56
2019-02-08T09:29:33.435Z,975.66
2019-02-08T09:31:37.609Z,975.64
2019-02-08T09:32:37.848Z,975.51
2019-02-08T09:34:42.019Z,975.75
2019-02-08T09:35:42.253Z,975.75
2019-02-08T09:37:46.434Z,975.59
2019-02-08T09:38:46.665Z,975.63
2019-02-08T09:40:39.787Z,975.71
2019-02-08T09:41:40.021Z,975.80
2019-02-08T09:43:44.176Z,975.65
2019-02-08T09:44:44.409Z,975.71
2019-02-08T09:46:37.518Z,975.64
2019-02-08T09:47:37.755Z,975.67
2019-02-08T09:49:41.906Z,975.70
2019-02-08T09:50:42.144Z,975.76
2019-02-08T09:52:46.320Z,975.57
2019-02-08T09:53:46.556Z,975.66
2019-02-08T09:55:57.492Z,975.71
2019-02-08T09:56:50.965Z,975.61
2019-02-08T09:58:55.127Z,975.70
2019-02-08T09:59:55.360Z,975.71
2019-02-08T10:01:59.537Z,975.79
2019-02-08T10:02:59.776Z,975.75
2019-02-08T10:05:03.927Z,975.63
2019-02-08T10:06:04.162Z,975.83
2019-02-08T10:08:08.343Z,975.65
2019-02-08T10:09:08.580Z,975.74
2019-02-08T10:11:12.760Z,975.83
2019-02-08T10:12:12.999Z,975.66
2019-02-08T10:14:17.154Z,975.44
2019-02-08T10:15:17.384Z,975.63
2019-02-08T10:17:10.487Z,975.57
2019-02-08T10:18:10.727Z,975.55
2019-02-08T10:20:14.879Z,975.61
2019-02-08T10:21:15.114Z,975.55
2019-02-08T10:23:19.290Z,975.66
2019-02-08T10:24:19.528Z,975.62
2019-02-08T10:26:23.706Z,975.69
2019-02-08T10:27:23.944Z,975.64
2019-02-08T10:29:28.092Z,975.62
2019-02-08T10:30:28.329Z,975.74
2019-02-08T10:32:32.510Z,975.63
2019-02-08T10:33:32.746Z,975.70
2019-02-08T10:35:36.902Z,975.77
2019-02-08T10:36:37.140Z,975.59
2019-02-08T10:38:41.312Z,975.60
2019-02-08T10:39:41.550Z,975.60
2019-02-08T10:41:45.721Z,975.48
2019-02-08T10:42:46.005Z,975.47
2019-02-08T10:44:50.124Z,975.52
2019-02-08T10:45:50.362Z,975.50
2019-02-08T10:47:54.547Z,975.50
2019-02-08T10:48:54.784Z,975.44
2019-02-08T10:50:58.944Z,975.67
2019-02-08T10:51:59.180Z,975.67
2019-02-08T10:54:03.363Z,975.43
2019-02-08T10:55:03.606Z,975.52
2019-02-08T10:56:56.715Z,975.31
2019-02-08T10:57:56.967Z,975.42
2019-02-08T11:00:01.118Z,975.29
2019-02-08T11:01:01.348Z,975.35
2019-02-08T11:03:05.525Z,975.43
2019-02-08T11:04:05.763Z,975.37
2019-02-08T11:06:09.929Z,975.37
2019-02-08T11:07:10.159Z,975.28
2019-02-08T11:09:14.348Z,975.41
2019-02-08T11:10:14.579Z,975.43
2019-02-08T11:12:18.758Z,975.51
2019-02-08T11:13:18.991Z,975.37
2019-02-08T11:15:23.152Z,975.27
2019-02-08T11:16:23.389Z,975.16
2019-02-08T11:18:27.563Z,975.32
2019-02-08T11:19:27.800Z,975.33
2019-02-08T11:21:31.973Z,975.23
2019-02-08T11:22:32.190Z,975.20
2019-02-08T11:24:36.374Z,975.12
2019-02-08T11:25:36.608Z,975.05
2019-02-08T11:27:29.718Z,975.00
2019-02-08T11:28:29.956Z,975.03
2019-02-08T11:30:34.116Z,975.04
2019-02-08T11:31:34.354Z,974.90
2019-02-08T11:33:38.527Z,974.88
2019-02-08T11:34:38.769Z,974.93
2019-02-08T11:36:43.939Z,974.67
2019-02-08T11:37:44.171Z,974.64
2019-02-08T11:39:49.392Z,974.82
2019-02-08T11:40:49.638Z,975.02
2019-02-08T11:42:53.814Z,974.78
2019-02-08T11:43:54.039Z,974.73
2019-02-08T11:45:58.191Z,974.78
2019-02-08T11:46:58.430Z,974.67
2019-02-08T11:49:02.606Z,974.64
2019-02-08T11:50:02.844Z,974.72
2019-02-08T11:52:06.995Z,974.87
2019-02-08T11:53:07.248Z,974.65
2019-02-08T11:55:11.414Z,974.50
2019-02-08T11:56:11.650Z,974.58
2019-02-08T11:58:15.824Z,974.78
2019-02-08T11:59:16.072Z,974.75
2019-02-08T12:01:20.222Z,974.78
2019-02-08T12:02:20.465Z,974.71
2019-02-08T12:04:24.642Z,974.65
2019-02-08T12:05:24.869Z,974.68
2019-02-08T12:07:17.953Z,974.63
2019-02-08T12:08:18.192Z,974.58
2019-02-08T12:10:22.360Z,974.68
2019-02-08T12:11:22.594Z,974.76
2019-02-08T12:13:27.655Z,974.66
2019-02-08T12:14:27.861Z,974.75
2019-02-08T12:16:32.021Z,974.33
2019-02-08T12:17:32.261Z,974.71
2019-02-08T12:19:36.442Z,974.50
2019-02-08T12:20:36.679Z,974.51
2019-02-08T12:22:40.831Z,974.45
2019-02-08T12:23:41.071Z,974.44
2019-02-08T12:25:45.244Z,974.50
2019-02-08T12:26:45.489Z,974.43
2019-02-08T12:28:49.658Z,974.34
2019-02-08T12:29:49.899Z,974.33
2019-02-08T12:31:54.055Z,974.28
2019-02-08T12:32:54.291Z,974.28
2019-02-08T12:34:58.468Z,974.33
2019-02-08T12:35:58.706Z,974.47
2019-02-08T12:38:02.859Z,974.11
2019-02-08T12:39:03.096Z,974.39
2019-02-08T12:41:09.812Z,973.93
2019-02-08T12:42:07.509Z,974.15
2019-02-08T12:44:11.693Z,974.26
2019-02-08T12:45:11.969Z,974.22
2019-02-08T12:47:05.096Z,974.18
2019-02-08T12:48:05.440Z,974.22
2019-02-08T12:50:10.419Z,974.30
2019-02-08T12:51:10.006Z,974.19
2019-02-08T12:53:14.246Z,974.25
2019-02-08T12:54:14.659Z,974.11
2019-02-08T12:56:19.007Z,974.25
2019-02-08T12:57:19.165Z,973.97
2019-02-08T12:59:23.413Z,974.18
2019-02-08T13:00:23.642Z,974.19
2019-02-08T13:02:27.853Z,974.15
2019-02-08T13:03:28.089Z,974.19
2019-02-08T13:05:32.351Z,974.02
2019-02-08T13:06:32.586Z,973.95
2019-02-08T13:08:36.766Z,973.96
2019-02-08T13:09:37.128Z,974.07
2019-02-08T13:11:41.446Z,974.02
2019-02-08T13:12:41.791Z,974.03
2019-02-08T13:14:45.938Z,973.98
2019-02-08T13:15:46.278Z,974.04
2019-02-08T13:17:50.470Z,974.04
2019-02-08T13:18:50.720Z,973.89
2019-02-08T13:20:54.897Z,973.99
2019-02-08T13:21:55.153Z,973.86
2019-02-08T13:23:59.358Z,973.74
2019-02-08T13:24:59.725Z,973.65
2019-02-08T13:26:53.194Z,973.81
2019-02-08T13:27:53.285Z,973.74
2019-02-08T13:29:57.494Z,973.83
2019-02-08T13:30:57.717Z,973.82
2019-02-08T13:33:02.014Z,973.88
2019-02-08T13:34:02.331Z,973.75
2019-02-08T13:36:06.637Z,973.72
2019-02-08T13:37:07.038Z,973.67
2019-02-08T13:39:11.214Z,973.69
2019-02-08T13:40:11.453Z,973.62
2019-02-08T13:42:15.621Z,973.60
2019-02-08T13:43:16.040Z,973.63
2019-02-08T13:45:20.203Z,973.54
2019-02-08T13:46:20.435Z,973.52
2019-02-08T13:48:24.611Z,973.53
2019-02-08T13:49:24.847Z,973.51
2019-02-08T13:51:29.024Z,973.48
2019-02-08T13:52:29.361Z,973.46
2019-02-08T13:54:33.525Z,973.44
2019-02-08T13:55:33.905Z,973.39
2019-02-08T13:57:27.072Z,973.43
2019-02-08T13:58:27.386Z,973.35
2019-02-08T14:00:31.575Z,973.28
2019-02-08T14:01:31.899Z,973.33
2019-02-08T14:03:36.066Z,973.31
2019-02-08T14:04:36.329Z,973.25
2019-02-08T14:06:40.680Z,973.36
2019-02-08T14:07:40.993Z,973.40
2019-02-08T14:09:45.143Z,973.37
2019-02-08T14:10:45.377Z,973.37
2019-02-08T14:12:49.559Z,973.45
2019-02-08T14:13:49.967Z,973.36
2019-02-08T14:15:54.180Z,973.28
2019-02-08T14:16:54.431Z,973.28
2019-02-08T14:18:58.791Z,973.32
2019-02-08T14:19:58.903Z,973.26
2019-02-08T14:22:03.105Z,973.31
2019-02-08T14:23:03.337Z,973.28
2019-02-08T14:25:19.870Z,973.27
2019-02-08T14:26:20.150Z,973.25
2019-02-08T14:28:24.346Z,973.20
2019-02-08T14:29:24.581Z,973.22
2019-02-08T14:31:28.805Z,973.23
2019-02-08T14:32:29.113Z,973.23
2019-02-08T14:34:33.279Z,973.13
2019-02-08T14:35:33.606Z,973.15
2019-02-08T14:37:26.850Z,973.13
2019-02-08T14:38:26.947Z,973.14
2019-02-08T14:40:31.111Z,973.16
2019-02-08T14:41:32.112Z,973.04
2019-02-08T14:43:35.830Z,972.98
2019-02-08T14:44:36.212Z,972.98
2019-02-08T14:46:40.444Z,972.86
2019-02-08T14:47:41.977Z,972.92
2019-02-08T14:49:44.967Z,972.92
2019-02-08T14:50:45.349Z,972.82
2019-02-08T14:52:49.663Z,972.87
2019-02-08T14:53:49.893Z,972.81
2019-02-08T14:55:54.081Z,972.86
2019-02-08T14:56:54.315Z,972.87
2019-02-08T14:58:58.523Z,972.75
2019-02-08T14:59:58.753Z,972.77
2019-02-08T15:02:02.897Z,972.71
2019-02-08T15:03:03.165Z,972.76
2019-02-08T15:05:08.566Z,972.79
2019-02-08T15:06:09.453Z,972.71
2019-02-08T15:08:12.883Z,972.65
2019-02-08T15:09:12.902Z,972.64
2019-02-08T15:11:17.058Z,972.62
2019-02-08T15:12:17.320Z,972.53
2019-02-08T15:14:21.651Z,972.60
2019-02-08T15:15:22.048Z,972.58
2019-02-08T15:17:15.167Z,972.80
2019-02-08T15:18:16.077Z,972.66
2019-02-08T15:20:19.733Z,972.75
2019-02-08T15:21:20.009Z,972.72
2019-02-08T15:23:24.418Z,972.70
2019-02-08T15:24:24.434Z,972.68
2019-02-08T15:26:28.636Z,972.68
2019-02-08T15:27:28.939Z,972.64
2019-02-08T15:29:34.166Z,972.62
2019-02-08T15:30:35.122Z,972.66
2019-02-08T15:32:39.683Z,972.52
2019-02-08T15:33:39.938Z,972.59
2019-02-08T15:35:45.135Z,972.57
2019-02-08T15:36:49.164Z,972.48
2019-02-08T15:38:49.578Z,972.57
2019-02-08T15:39:49.814Z,972.54
2019-02-08T15:41:53.983Z,972.56
2019-02-08T15:42:54.191Z,972.63
2019-02-08T15:44:58.420Z,972.47
2019-02-08T15:45:58.651Z,972.44
2019-02-08T15:48:02.887Z,972.47
2019-02-08T15:49:03.159Z,972.45
2019-02-08T15:51:07.331Z,972.37
2019-02-08T15:52:07.578Z,972.37
2019-02-08T15:54:11.783Z,972.25
2019-02-08T15:55:12.058Z,972.28
2019-02-08T15:57:05.137Z,972.20
2019-02-08T15:58:05.402Z,972.25
2019-02-08T16:00:09.573Z,972.18
2019-02-08T16:01:09.835Z,972.22
2019-02-08T16:03:14.013Z,972.20
2019-02-08T16:04:14.233Z,972.15
2019-02-08T16:06:18.399Z,972.14
2019-02-08T16:07:18.660Z,972.08
2019-02-08T16:09:22.826Z,972.12
2019-02-08T16:10:23.059Z,972.08
2019-02-08T16:12:27.231Z,972.01
2019-02-08T16:13:27.452Z,971.98
2019-02-08T16:15:31.623Z,971.97
2019-02-08T16:16:31.864Z,971.89
2019-02-08T16:18:36.031Z,971.93
2019-02-08T16:19:36.268Z,971.89
2019-02-08T16:21:40.413Z,971.71
2019-02-08T16:22:40.651Z,971.88
2019-02-08T16:24:44.820Z,971.83
2019-02-08T16:25:45.056Z,971.79
2019-02-08T16:27:49.198Z,971.83
2019-02-08T16:28:49.441Z,971.86
2019-02-08T16:30:53.603Z,971.79
2019-02-08T16:31:53.837Z,971.83
2019-02-08T16:33:58.037Z,971.86
2019-02-08T16:34:58.239Z,971.78
2019-02-08T16:36:51.312Z,971.96
2019-02-08T16:37:51.555Z,971.86
2019-02-08T16:39:55.714Z,971.83
2019-02-08T16:40:55.952Z,971.77
2019-02-08T16:43:00.100Z,971.76
2019-02-08T16:44:00.335Z,971.77
2019-02-08T16:46:04.502Z,971.85
2019-02-08T16:47:04.738Z,971.90
2019-02-08T16:49:08.887Z,971.86
2019-02-08T16:50:09.122Z,971.76
2019-02-08T16:52:13.294Z,971.88
2019-02-08T16:53:13.532Z,971.85
2019-02-08T16:55:17.710Z,971.82
2019-02-08T16:56:17.942Z,971.74
2019-02-08T16:58:22.087Z,971.70
2019-02-08T16:59:22.324Z,971.69
2019-02-08T17:01:26.490Z,971.69
2019-02-08T17:02:26.729Z,971.70
2019-02-08T17:04:30.899Z,971.70
2019-02-08T17:05:31.136Z,971.80
2019-02-08T17:07:24.232Z,971.71
2019-02-08T17:08:24.470Z,971.61
2019-02-08T17:10:28.637Z,971.63
2019-02-08T17:11:28.878Z,971.64
2019-02-08T17:13:33.027Z,971.69
2019-02-08T17:14:33.291Z,971.63
2019-02-08T17:16:37.425Z,971.56
2019-02-08T17:17:37.661Z,971.48
2019-02-08T17:19:41.826Z,971.47
2019-02-08T17:20:42.050Z,971.41
2019-02-08T17:22:46.220Z,971.42
2019-02-08T17:23:46.455Z,971.46
2019-02-08T17:25:50.624Z,971.41
2019-02-08T17:26:50.861Z,971.42
2019-02-08T17:28:55.006Z,971.39
2019-02-08T17:29:55.315Z,971.36
2019-02-08T17:31:59.457Z,971.41
2019-02-08T17:32:59.730Z,971.42
2019-02-08T17:35:03.876Z,971.51
2019-02-08T17:36:04.111Z,971.46
2019-02-08T17:38:08.360Z,971.50
2019-02-08T17:39:08.621Z,971.46
2019-02-08T17:41:12.787Z,971.43
2019-02-08T17:42:13.026Z,971.39
2019-02-08T17:44:17.197Z,971.45
2019-02-08T17:45:17.455Z,971.35
2019-02-08T17:47:10.587Z,971.36
2019-02-08T17:48:10.813Z,971.29
2019-02-08T17:50:14.972Z,971.26
2019-02-08T17:51:15.255Z,971.25
2019-02-08T17:53:19.423Z,971.21
2019-02-08T17:54:25.533Z,971.10
2019-02-08T17:56:23.863Z,971.05
2019-02-08T17:57:24.133Z,971.03
2019-02-08T17:59:28.291Z,971.06
2019-02-08T18:00:28.525Z,971.06
2019-02-08T18:02:32.731Z,971.11
2019-02-08T18:03:32.962Z,971.05
2019-02-08T18:05:37.140Z,971.09
2019-02-08T18:06:37.396Z,971.04
2019-02-08T18:08:41.624Z,971.04
2019-02-08T18:09:41.859Z,971.15
2019-02-08T18:11:46.073Z,971.00
2019-02-08T18:12:46.344Z,971.03
2019-02-08T18:14:50.539Z,971.02
2019-02-08T18:15:50.770Z,971.03
2019-02-08T18:17:54.944Z,971.05
2019-02-08T18:18:55.174Z,971.04
2019-02-08T18:20:59.321Z,971.07
2019-02-08T18:21:59.557Z,971.00
2019-02-08T18:24:03.728Z,971.00
2019-02-08T18:25:04.049Z,971.04
2019-02-08T18:26:57.126Z,970.98
2019-02-08T18:27:57.360Z,971.04
2019-02-08T18:30:01.586Z,971.03
2019-02-08T18:31:01.865Z,970.98
2019-02-08T18:33:06.034Z,971.05
2019-02-08T18:34:06.380Z,970.98
2019-02-08T18:36:10.555Z,970.97
2019-02-08T18:37:10.824Z,970.98
2019-02-08T18:39:14.989Z,970.90
2019-02-08T18:40:15.225Z,970.95
2019-02-08T18:42:19.455Z,970.94
2019-02-08T18:43:19.729Z,970.89
2019-02-08T18:45:23.908Z,970.84
2019-02-08T18:46:24.166Z,970.86
2019-02-08T18:48:28.409Z,970.80
2019-02-08T18:49:28.644Z,970.78
2019-02-08T18:51:33.813Z,970.77
2019-02-08T18:52:34.047Z,970.76
2019-02-08T18:54:38.211Z,970.71
2019-02-08T18:55:38.476Z,970.71
2019-02-08T18:57:31.593Z,970.63
2019-02-08T18:58:31.898Z,970.60
2019-02-08T19:00:39.919Z,970.62
2019-02-08T19:01:37.318Z,970.58
2019-02-08T19:03:41.535Z,970.63
2019-02-08T19:04:41.772Z,970.64